Deprecated: Methods with the same name as their class will not be constructors in a future version of PHP; flygplats has a deprecated constructor in D:\WebSitesNoSync\JulaAirPROD\vaderkarta\flygplats.class.php on line 3
Väderkarta

Håll muspekaren över respektive flygplats för att se aktuella METAR och TAF.
Informationen kommer från Aviation Weather Center och vi tar inget ansvar för ev fel.

whatever whatever

I=ILS ((min200ft)/550m), L=LOC(min250ft/800m), V=VOR(min300ft/800m), N=NDB(min300ft/800m), G=GPS, C=CIRC(min500ft/1600m),
Takeoff 500m, rwy lgt 250m, ctr lgt 200m, multi RVR 150m   RWY


SWEDEN

AirportMETARTAF
Arvidsjaur (I12/I30) ESNX 142020Z AUTO 36007KT 340V040 9999 OVC004/// 02/01 Q1013 TAF ESNX 141430Z 1415/1419 01010KT 9999 OVC010 PROB40 1415/1419 OVC008
Borlänge (I32/V14) ESSD 142020Z AUTO 05004KT 020V080 9999 FEW013/// SCT059/// BKN092/// 08/07 Q1006 TAF AMD ESSD 141334Z 1413/1416 05008KT CAVOK TEMPO 1413/1416 12010KT SHRA SCT050CB
Bromma (I12/I30) ESSB 142020Z AUTO 02004KT 8000 -RA SCT013/// BKN017/// BKN033/// 11/09 Q1004 TAF ESSB 141730Z 1418/1421 07009KT 9999 SCT030 TEMPO 1419/1421 SHRA BKN020CB BECMG 1420/1421 BKN010
Gällivare (I30/N12) ESNG 142020Z AUTO 03005KT 9999 OVC008/// 02/M00 Q1015 TAF ESNG 141430Z 1415/1419 03008KT 9999 OVC012 TEMPO 1417/1419 OVC008
Halmstad (I19/N01) ESMT 142020Z AUTO 24002KT 9999 SCT003/// OVC041/// 12/11 Q1003 TAF ESMT 141107Z 1412/1415 21008KT CAVOK TEMPO 1412/1415 SHRA
Hemavan (I33/?15) B ESUT 142020Z AUTO 15012KT 9999 BKN011/// OVC014/// 03/01 Q1011
Jönköping (I19/V01) ESGJ 142020Z VRB02KT 9999 -RA BKN038 10/09 Q1003 REDZ TAF ESGJ 140830Z 1409/1413 11007KT CAVOK PROB40 1409/1413 SCT040CB
Kalmar (I16/V34) ESMQ 142020Z AUTO 00000KT 9999 NCD 08/08 Q1004 TAF ESMQ 141430Z 1415/1418 05007KT CAVOK TEMPO 1415/1418 SHRA SCT050CB
Karlsborg (VFR 06/24) ESIA 142020Z AUTO 07007KT 9999 OVC050/// 10/09 Q1004
Karlstad (I03/I21) ESOK 142020Z AUTO 06005KT 9999 SCT075/// 10/10 Q1004 TAF ESOK 141130Z 1412/1415 04007KT CAVOK PROB40 1412/1415 SHRA BKN050CB
Kiruna (I21/V03) ESNQ 142020Z AUTO 03007KT 6000 BKN003/// OVC005/// 00/00 Q1015 TAF ESNQ 141430Z 1415/1417 02008KT 9999 OVC013
Kramfors (I35/L17) ESNK 142020Z AUTO 00000KT 9999 FEW039/// BKN080/// BKN100/// 08/04 Q1010 TAF ESNK 141130Z 1412/1416 16005KT CAVOK PROB40 1414/1416 SCT060CB
Kristianstad (I19/N01) ESMK 142020Z AUTO 15003KT 9999 SCT094/// 09/07 Q1004
Landvetter (I03/I21) ESGG 142020Z 16006KT CAVOK 10/09 Q1002 TAF ESGG 141730Z 1418/1518 12007KT 9999 -RA BKN045 TEMPO 1418/1420 VRB12KT SHRA BKN040CB TEMPO 1420/1515 3000 RA BR BKN004 SCT040CB PROB40 1515/1518 BKN012
Linköping-SAAB (I11/I29) ESSL 142020Z AUTO 07002KT 9999 BKN018/// OVC025/// 11/10 Q1004
Ljungbyhed (I29/V11) ESTL 142020Z AUTO 20005KT 9999 FEW042/// BKN065/// 12/09 Q1004
Luleå (I14/I32) ESPA 142020Z AUTO 35010KT 9999 BKN140/// 06/03 Q1012 TAF ESPA 141430Z 1415/1419 36012KT 9999 SCT020 PROB40 1417/1419 BKN012
Lycksele (I14/L32) ESNL 142020Z AUTO 34009KT 9999 BKN073/// 05/02 Q1012
Norrköping (I09/I27) ESSP 142020Z AUTO 07006KT 9999 -DZ OVC028/// 10/08 Q1004 TAF ESSP 140830Z 1409/1413 06003KT CAVOK PROB40 1412/1413 SHRA SCT050CB
Ronneby (I19/N01) ESDF 142020Z AUTO 00000KT 9999 -DZ FEW054/// BKN072/// OVC100/// 10/08 Q1004 TAF ESDF 141130Z 1412/1414 17008KT CAVOK PROB40 1412/1414 FEW040TCU
Skavsta (I26/L08) ESKN 142020Z 25003KT 9999 -SHRA FEW024CB BKN051 09/09 Q1004 TAF AMD ESKN 141946Z 1419/1518 VRB03KT 9999 SCT015 BKN035 TEMPO 1419/1423 4000 SHRA BKN012 BKN020CB TEMPO 1423/1507 3000 SHRA BR BKN004 BKN015CB
Skelefteå (I28/V10) ESNS 142020Z AUTO 35007KT 310V020 9999 FEW130/// 06/02 Q1011 TAF ESNS 141430Z 1415/1418 01010KT CAVOK PROB40 1415/1418 SCT060CB
Skövde (N01/I19) ESGR 142020Z AUTO 13002KT 9999 -DZ FEW028/// BKN055/// BKN072/// 10/10 Q1004
Stockholm-Arlanda (I01LR/I19LR L08/I26) ESSA 142020Z 03010KT 9999 SCT030 10/07 Q1005 NOSIG TAF ESSA 141730Z 1418/1518 07008KT 9999 SCT030 PROB40 1421/1423 SHRA BKN012 BKN020 BECMG 1423/1501 BKN006 TEMPO 1423/1507 3000 SHRA BR BKN004 BKN015CB BECMG 1507/1509 BKN010 BECMG 1510/1512 18010KT BKN020
Sturup (I17/I35) ESMS 142020Z 14003KT CAVOK 09/08 Q1004 TAF ESMS 141713Z 1418/1518 15008KT CAVOK PROB40 1422/1504 SHRA BKN004 SCT030CB FM150400 25008KT 9999 BKN006 TEMPO 1504/1508 BKN012 BECMG 1508/1511 BKN018
Sundsvall (I16/I34) ESNN 142020Z AUTO 33011KT 9999 -RA FEW040/// OVC068/// 07/06 Q1009
Sveg-ESND (L09)B ESND 142020Z AUTO 09009KT 9999 -RA OVC059/// 10/06 Q1008
Såtenäs (I19/N01) ESIB 142020Z AUTO 12014KT 9999 -RA BKN056/// OVC070/// 12/12 Q1002 RERA TAF ESIB 141130Z 1412/1415 03009KT CAVOK TEMPO 1412/1415 SHRA BKN050CB PROB30 1413/1415 VRB12G22KT 4000 TSRA RMK MIL
Torsby (L16/L34) ESST 142020Z AUTO 00000KT 9999 BKN086/// 11/10 Q1005
Trollhättan (I33/N15) ESGT 142020Z AUTO 11011KT 6000 RA FEW001/// SCT038/// OVC057/// 12/10 Q1002
Umeå (I14/I32) ESNU 142020Z 34009KT CAVOK 09/05 Q1010
Vilhelmina (I28/N10) B ESNV 142020Z AUTO 01003KT 330V040 9999 -DZ OVC009/// 04/02 Q1012
Visby (I21/V03) ESSV 142020Z AUTO 10004KT 9999 SCT006/// OVC011/// 10/08 Q1003 TAF ESSV 141730Z 1418/1420 09008KT 9999 SCT025 BECMG 1419/1420 BKN010
Västerås (I19/V01) ESOW 142020Z AUTO 02010KT 9999 BKN008/// OVC055/// 09/07 Q1006 REDZ TAF ESOW 141130Z 1412/1415 18005KT CAVOK PROB40 1412/1415 SHRA BKN050CB
Växjö (I19/L01) ESMX 142020Z AUTO 26003KT 230V300 8000 RA ///043 10/10 Q1004 TAF ESMX 141130Z 1412/1414 12009KT CAVOK PROB40 1412/1414 SCT040CB
Ängelholm (I14/N32) ESTA 142020Z AUTO 17006KT 9999 FEW042/// BKN059/// OVC098/// 12/08 Q1003 TAF ESTA 141407Z 1415/1419 29008KT CAVOK PROB40 1415/1419 SHRA SCT030CB
Örebro (I01/I19) ESOE 142020Z AUTO 03007KT 9999 BKN006/// OVC009/// 12/11 Q1005 TAF AMD ESOE 142016Z 1420/1421 04005KT 9999 BKN007 TEMPO 1420/1421 4000 SHRA SCT007 BKN015CB
Örnsköldsvik (I12/V30) ESNO 142020Z AUTO 33005KT 9999 BKN092/// OVC130/// 08/06 Q1010
Östersund (I12/V30) ESNZ 142020Z AUTO 05005KT 020V090 9999 OVC030/// 10/07 Q1008 TAF ESNZ 141130Z 1412/1415 VRB03KT 9999 OVC004 BECMG 1412/1414 SCT040

NORDIC

AirportMETARTAF
Alta (I11) B ENAT 142020Z 14011KT 9999 OVC042 02/M04 Q1021 RMK WIND 700FT 13013KT TAF ENAT 141400Z 1415/1420 10008KT 9999 BKN040
Andoya (L14/V21/V32) ENAN 142020Z 06004KT 9999 FEW040 BKN051 06/02 Q1013 TAF ENAN 1418/1518 06010KT CAVOK BECMG 1508/1511 06020KT
Aro (I07/L25) B ENML 142020Z AUTO 15003KT 110V200 9999NDV FEW170/// 10/08 Q1004 TAF ENML 141400Z 1415/1420 25010KT 9999 FEW010 SCT030 BKN080 BECMG 1415/1418 VRB06KT
Banak (I35/L17) ENNA 142020Z AUTO VRB02KT 9999 OVC035/// 03/M03 Q1021 RMK WIND 1800FT 15010KT AMD ENNA 1420/1518 16008KT 9999 FEW020 BKN030
Bardufors (I28/L10) B ENDU 142020Z 11011KT 080V150 9999 FEW040 BKN050 05/M01 Q1014 RMK WIND 1100FT 08010KT WIND 2200FT 10015KT TAF ENDU 1418/1518 11012KT 9999 FEW040 BKN060
Bergen (I17/I35) ENBR 142020Z 03004KT 9999 FEW015 SCT088 BKN130 12/11 Q1003 RMK WIND 1200FT 00000KT TAF ENBR 1418/1518 VRB05KT 9999 FEW030TCU BKN060 TEMPO 1514/1518 SHRA SCT025CB BKN035
Billund (I09/I27) EKBI 142020Z AUTO 27009KT 9999 OVC007/// 08/07 Q1004 TAF EKBI 141714Z 1418/1518 26008KT 9999 BKN006 TEMPO 1418/1420 BKN015 PROB40 1420/1505 4000 -RA BR BKN004 BECMG 1505/1508 BKN018
Björneborg (I30/V12) EFPO 142020Z AUTO 06003KT 020V100 CAVOK 13/10 Q1007
Bodö (I07/I25) ENBO 142020Z 08019KT 9999 FEW040 BKN090 09/03 Q1009 NOSIG TAF ENBO 1418/1518 09018KT 9999 FEW025 BKN070
Bornholm (I11/I29) EKRN 142020Z AUTO 14001KT 9999 FEW110/// BKN170/// 08/07 Q1005 TAF EKRN 141427Z 1415/1421 13008KT CAVOK
Bronoysund (L04) ENBN 142020Z 06008KT CAVOK 12/06 Q1007
Enontekis (I21/V03) EFET 142020Z AUTO 07008KT 040V110 9999 OVC012 01/M02 Q1016
Esbjerg (I08/I26) EKEB 142020Z AUTO 27010KT 9999 OVC006/// 08/08 Q1005 TAF EKEB 141427Z 1415/1421 28008KT 9999 BKN008 TEMPO 1415/1421 SCT010 BKN025
Faroar (L13/L31) B EKVG 142020Z AUTO 05006KT 9999 BKN035/// 05/02 Q1013 TAF EKVG 141406Z 1415/1424 05010KT 9999 SCT022 BKN033
Hammerfest (L05/L23) ENHF 142020Z 08011KT 9999 BKN036 01/M04 Q1021 RMK WIND 1254FT 11020KT TAF ENHF 141700Z 1418/1423 08015KT 9999 BKN040
Haugesund (I14/V32) ENHD 142020Z AUTO 36004KT 0200 R13/0650N R31/0750U FG FEW000/// SCT010/// 12/11 Q1002 TAF AMD ENHD 141902Z 1419/1420 VRB05KT 6000 SCT004 BKN030 TEMPO 1419/1420 1200 BR VCFG VV003 PROB30 1419/1420 0400 FG VV003
Helsinki (I04/I15/I22/V33) EFHK 142020Z 07004KT 9999 FEW043 14/09 Q1007 NOSIG
Hoybuktmoen (I24/V06) ENKR 142020Z 08009KT 9999 SCT017 BKN035 01/M01 Q1022 RMK WIND 731FT 08016KT
Ivalo (I22/N22) EFIV 142020Z AUTO 04009KT 9999 OVC016 02/M01 Q1018 TAF EFIV 140528Z 1406/1409 04012KT 8000 BKN005 TEMPO 1406/1409 3000 -SN BKN011 PROB40 1406/1407 -FZRA
Jyvaskyla (I30/V12) EFJY 142020Z AUTO 13003KT CAVOK 12/09 Q1009
Karup (I09/I27) EKKA 142020Z AUTO 26008KT 9999 OVC008/// 09/08 Q1004
Kastrup (I04/I12/I22/I30) EKCH 142025Z 18005KT 9999 BKN022 11/09 Q1004 NOSIG TAF EKCH 141714Z 1418/1518 18008KT CAVOK PROB40 1421/1503 SHRA BKN008 SCT030CB BECMG 1423/1502 25010KT FM150300 25010KT 9999 BKN008 TEMPO 1503/1507 BKN012 BECMG 1507/1510 BKN018 BECMG 1514/1517 16006KT
Kemi (I18/N36) EFKE 142020Z AUTO 04007KT CAVOK 08/04 Q1012
Kittila (I34/L16) EFKT 142020Z AUTO 06007KT 030V090 9999 OVC011 02/M00 Q1016 TAF EFKT 140528Z 1406/1410 03013KT 8000 -SHRA BKN008 TEMPO 1406/1410 4000 -SNRA BKN014
Kristiansand (I04/I22) ENCN 142020Z AUTO 00000KT 9999 FEW098/// 12/10 Q1002 TAF ENCN 141400Z 1415/1420 20008KT 9999 FEW020 SCT040 TEMPO 1415/1418 SHRA SCT020CB
Kristiansund (I07/V25) ENKB 142020Z AUTO 01008KT 9999 BKN098/// BKN180/// 09/07 Q1005 RMK WIND 745FT 03012KT TAF ENKB 141400Z 1415/1420 01010KT 9999 FEW015 SCT060
Kruunupyy (I19/N01) EFKK 142020Z AUTO VRB01KT CAVOK 05/04 Q1008
Kuopio (I33/V15) EFKU 142020Z AUTO 16007KT CAVOK 13/09 Q1010
Leknes (L03) ENLK 142020Z 01008KT CAVOK 06/03 Q1011
Mariehamn (I21/V03) EFMA 142020Z AUTO 33003KT 9999 SHRA BKN036 11/09 Q1005
Moirana (L14/32) ENRA 142020Z 09006KT 050V150 CAVOK 08/02 Q1011 TAF ENRA 141700Z 1418/1421 07012KT 9999 FEW040
Namsos (L25/N07) ENNM 141950Z 08013KT CAVOK 13/06 Q1007
Narvik (I17/V35) B ENEV 142020Z AUTO 09007KT 050V120 9999 OVC037/// 07/01 Q1012 RMK WIND 1400FT 09019KT TAF ENEV 141100Z 1412/1417 08012KT 9999 FEW030 BKN050 TEMPO 1412/1417 08015G25KT
Orland (I15/I33) ENOL 142020Z 19001KT CAVOK 08/07 Q1005 NOSIG TAF ENOL 1418/1518 34010KT 9999 FEW020 BECMG 1418/1420 VRB05KT PROB30 1420/1424 BKN003 BECMG 1423/1502 12012KT
Oslo (I01/I19) ENGM 142020Z 06003KT 9000 -SHRA FEW008 OVC067 12/12 Q1004 NOSIG TAF ENGM 1418/1518 02008KT 9999 SCT020 BKN040 TEMPO 1418/1422 4000 SHRA SCT020CB BKN040 PROB40 TEMPO 1418/1420 TS TEMPO 1500/1518 RA BKN012
Pammerfors (I24/V06) EFTP 142020Z AUTO 12003KT CAVOK 10/10 Q1007
Roskilde (I11/I21/03/29) EKRK 142020Z AUTO 23003KT 9999 SCT016/// BKN028/// BKN081/// 11/10 Q1003
Rovaniemi (I21/V03) EFRO 142020Z AUTO 05012KT CAVOK 04/01 Q1013
Rygge (I30/N12) ENRY 142020Z AUTO 08009KT 9000NDV RA FEW015/// OVC051/// 12/10 Q1002 TAF AMD ENRY 141954Z 1419/1518 06008KT 9999 SCT030 BKN060 TEMPO 1419/1422 TSRA SCT025CB BKN060 TEMPO 1512/1518 4000 SHRA BR BKN008 SCT015CB
Röros (I32) B ENRO 142020Z AUTO 29004KT 270V330 9999NDV NCD 07/04 Q1007 TAF ENRO 141400Z 1415/1420 16005KT CAVOK PROB40 TEMPO 1416/1420 SHRA SCT040CB
Skagen (L09/L27) ENSK 141820Z 05008KT CAVOK 09/01 Q1012
Sonderborg (I32/N14) EKSB 142020Z AUTO 27007KT 230V300 5000NDV -SHRA OVC009/// 09/08 Q1005
Sorkjosen (15/33) ENSR 141850Z 14015KT 9999 SCT035 BKN070 05/M02 Q1019 RMK WIND 1119FT 13024KT
Stavanger (I11/I18/I36/V29) ENZV 142020Z 06003KT 9999 5000W VCFG FEW006 BKN050 13/12 Q1002 TAF COR ENZV 1418/1518 VRB05KT 9999 SCT006 BKN030 TEMPO 1418/1518 1500 BR VCFG BKN004 TEMPO 1422/1510 SHRA BKN004 BKN020CB BECMG 1512/1515 21010KT
Stokka (L21) ENST 142020Z VRB02KT CAVOK 10/06 Q1008 RMK WIND 300FT 07004KT
Svalbard (I10/L28) C ENSB 142020Z 32006KT 9999 BKN027 M03/M09 Q1021 RMK WIND 1400FT 28006KT TAF ENSB 1418/1518 27009KT 9999 BKN030
Svolvaer (L01) ENSH 142020Z 08009KT 9999 SCT045 07/02 Q1011 RMK WIND 150FT 05015KT TAF ENSH 141400Z 1415/1419 04015KT 9999 SCT050
Torp (I18/I36) ENTO 141950Z 36009KT CAVOK 16/11 Q1001 TEMPO SHRA TAF AMD ENTO 141946Z 1419/1518 02008KT 9999 SCT030 BKN060 TEMPO 1419/1423 TSRA SCT025CB BKN050 PROB40 1423/1512 BKN008 TEMPO 1512/1518 4000 SHRA BR BKN004 SCT015CB
Tromsö (I01/I19) B ENTC 142020Z 03004KT 9999 BKN062 06/M02 Q1015 NOSIG RMK WIND 2600FT 11016KT TAF ENTC 1418/1518 03012KT 9999 SCT060
Trondheim (I09/I27) B ENVA 142020Z 00000KT CAVOK 13/09 Q1006 RMK WIND 670FT 09009KT TAF ENVA 1418/1518 27008KT 9999 FEW020 SCT050 BECMG 1418/1421 11010KT TEMPO 1422/1510 14015G25KT
Uleåborg (I12/V30) EFOU 142020Z AUTO 08011KT CAVOK 12/06 Q1009
Vamdrup (N01/N19) EKVD 142020Z AUTO 27008KT //// ///////// 09/08 Q1005 TAF EKVD 141124Z 1412/1416 29008KT 9999 SCT010 BKN020 TEMPO 1412/1416 SHRA BKN008 SCT050CB
Vojens (I11/I29) EKSP 142020Z 26010KT 9999 SCT007 BKN011 BKN015 08/07 Q1005
Wasa (I16/V34) EFVA 142020Z AUTO 36006KT 9999 -SHRA NSC 06/04 Q1009
Åbo (I26/V08) EFTU 142020Z AUTO 11007KT 090V150 9999 BKN029 14/09 Q1006
Ålborg (I08/I26) EKYT 142020Z AUTO 32003KT 6000 SCT005/// BKN007/// BKN009/// 10/10 Q1003 RESHRA
Ålesund (I25/V07) B ENAL 142020Z 05010KT 9999 FEW004 08/07 Q1004 TAF ENAL 141700Z 1418/1421 05012KT 9999 FEW008 SCT020 PROB40 1419/1421 BKN008
Århus (I10/I28) EKAH 142020Z AUTO 25006KT 210V270 9999 FEW019/// BKN093/// 13/12 Q1003 TAF EKAH 141714Z 1418/1518 23005KT 9999 SCT018 TEMPO 1418/1424 4000 SHRA BKN008 SCT030CB FM150000 26008KT 9999 BKN008 TEMPO 1500/1506 4000 SHRA BR BKN012 SCT040CB BECMG 1506/1509 BKN018

EUROPE

AirportMETARTAF
Augsburg-EDMA (I25/G07) B EDMA 142020Z AUTO 08004KT 050V110 9999 FEW034/// OVC086/// 10/07 Q1010 TAF EDMA 141700Z 1418/1503 32006KT CAVOK BECMG 1418/1420 24005KT PROB30 TEMPO 1421/1424 SHRA BKN030TCU
Birmingham-EGBB (I15/I33) EGBB 142020Z 16004KT CAVOK 08/05 Q1007 TAF EGBB 141654Z 1418/1518 15005KT 9999 SCT030 PROB30 TEMPO 1418/1503 7000 SHRA BKN014 TEMPO 1503/1509 7000 RA BKN012 TEMPO 1509/1518 7000 SHRA PROB30 TEMPO 1512/1518 4000 +SHRA BKN008
Dortmund (I06/I24) EDLW 142020Z 16006KT 9999 BKN032 BKN041 12/09 Q1008 TAF EDLW 141700Z 1418/1518 28005KT CAVOK PROB30 TEMPO 1418/1420 27012KT SHRA SCT030CB BECMG 1418/1421 18005KT BECMG 1505/1507 21010KT TEMPO 1508/1515 22015G25KT SHRA BKN020CB
Eindhoven-EHEH (I04/I22) EHEH 142045Z AUTO 29005KT 260V010 9999 FEW015CB SCT042 BKN077 12/09 Q1008 BLU TEMPO VRB10G20KT 4000 SHRA SCT025CB BKN030 TAF EHEH 141739Z 1418/1524 VRB02KT 9999 SCT040 PROB40 TEMPO 1418/1420 VRB05G15KT 4500 SHRA SCT030CB SCT040 PROB30 TEMPO 1418/1419 VRB10G25KT 3000 TSRAGR FEW012 BKN025CB BECMG 1422/1501 3500 BR MIFG PROB40 1501/1505 0500 BCFG SCT000 PROB40 TEMPO 1505/1507 SCT002 BKN003 BECMG 1505/1508 21007KT 9999 NSW SCT020 TEMPO 1509/1522 22010G20KT 4500 SHRA RA SCT015 SCT020CB BKN030 PROB30 TEMPO 1509/1521 22012G25KT 3000 TSRAGR SCT012 BKN018CB TEMPO 1515/1518 SCT008 BKN012
Krakow (I25) EPKK 142030Z 23009KT 9999 BKN010 BKN030 12/10 Q1008
Kuressaare (V17/V35) EEKE 142020Z AUTO 09007KT 050V130 9999NDV SCT014 12/11 Q1004 TAF EEKE 141400Z 1415/1421 08010KT 9999 BKN012 SCT025CB TEMPO 1415/1418 BKN005 TEMPO 1418/1421 3000 SHRA BR PROB30 TEMPO 1419/1421 TSRA
Köln (I14/I24/I32) EDDK 142020Z 17003KT 9999 FEW016 FEW050CB 10/09 Q1008 NOSIG TAF EDDK 141700Z 1418/1524 15004KT 9999 SCT045 TEMPO 1418/1420 20012KT SHRA SCT035TCU BECMG 1507/1510 20009KT PROB40 TEMPO 1510/1517 22015G25KT SHRA SCT020CB BECMG 1518/1521 18004KT
Le Bourget-LFPB (I07/I27/L25/ 03/21/09) LFPB 142030Z AUTO VRB02KT CAVOK 11/08 Q1010 BECMG 24012KT TAF LFPB 141700Z 1418/1518 24012KT 9999 BKN040 PROB30 TEMPO 1500/1502 4000 -SHRA BKN012TCU BECMG 1502/1504 BKN014 TEMPO 1505/1506 4000 RA PROB40 TEMPO 1507/1510 19015G25KT BKN009TCU BECMG 1510/1511 BKN040 TEMPO 1511/1518 20015G25KT 4000 -SHRA BKN035TCU PROB40 TEMPO 1512/1518 20020G40KT 2500 TSRA SCT030CB
Linz-LOWL (I09/I27) LOWL 142020Z AUTO VRB01KT CAVOK 12/07 Q1009 NOSIG TAF LOWL 141715Z 1418/1518 27004KT 9999 SCT060 TX15/1418Z TN08/1503Z PROB30 TEMPO 1500/1506 0800 BCFG SCT003 TEMPO 1502/1512 -RA SCT008 BKN012 TEMPO 1514/1518 08004KT
Pardubice-LKPD (I27) LKPD 142030Z VRB01KT 9999 -RA NSC 12/09 Q1009 NOSIG RMK BLACK BLU TAF LKPD 141700Z 1418/1518 27006KT CAVOK PROB30 TEMPO 1418/1420 SHRA SCT020TCU TEMPO 1502/1504 1500 BR BECMG 1509/1511 SCT030 TEMPO 1510/1516 5000 SHRA SCT025CB
Prag-LKPR (I06/I13/I24/I31) LKPR 142030Z 18004KT 9999 FEW040TCU 09/08 Q1009 NOSIG TAF LKPR 141700Z 1418/1600 23008KT 9999 SCT040 PROB30 TEMPO 1502/1506 3000 BR TEMPO 1510/1519 17012KT 8000 SHRA BKN014 SCT030TCU TEMPO 1519/1600 5000 RA BKN009
Reykjavik-BIRK (I19/L13/ 01/06/24/31) BIRK 142000Z 16013KT 9999 VCSH FEW022 BKN042 BKN055 06/01 Q1018
Salzburg-LOWS (I16) LOWS 142020Z AUTO 18003KT 9999 FEW110 10/07 Q1010 TAF LOWS 141715Z 1418/1518 15005KT 9999 SCT100 TX15/1516Z TN08/1503Z BECMG 1422/1424 28006KT SCT050 BKN070 TEMPO 1500/1503 -SHRA TEMPO 1503/1509 SHRA
St Petersburg (I10/I28) B ULLI 142030Z 11003MPS CAVOK 16/08 Q1009 R10L/090060 NOSIG
Tallin (I08/I26) EETN 142020Z 11007KT 9999 SCT039 13/12 Q1006 NOSIG TAF EETN 141700Z 1418/1518 11008KT 9999 SCT025CB BKN040 TEMPO 1418/1501 3000 RA BR BKN007 OVC030 TEMPO 1505/1509 4000 SHRA BKN005 SCT020CB TEMPO 1510/1514 VRB20KT 2000 TSRA BKN012 BKN020CB BECMG 1514/1516 30010KT BKN007
Ulenurme (N26/C08) B EETU 142020Z AUTO 08004KT 9999 FEW033/// SCT044/// BKN057/// 13/12 Q1006
Vilnius EYVI 142020Z VRB01KT 2500 BR MIFG FEW002 SCT029 BKN110 10/10 Q1004 TEMPO 0600 FG TAF EYVI 141709Z 1418/1518 VRB04KT 5000 BR SCT005 PROB40 TEMPO 1418/1419 TSRA BKN015CB TEMPO 1419/1507 0500 FG VV002 BECMG 1507/1509 9000 NSW SCT030 BECMG 1509/1511 28014KT TEMPO 1515/1518 BKN045CB PROB40 TEMPO 1515/1518 TSRA
Warszawa (I11/I33/V15/V29) EPWA 142030Z 26007KT 9999 SCT030 13/10 Q1005 NOSIG
Wroclaw (I29) EPWR 142030Z VRB01KT CAVOK 09/08 Q1008

OTHER

AirportMETARTAF